1893 NOT_NAMED (1893042S15063)


IBTrACS version v04r00. Visit IBTrACS website for data access.
Please direct all questions to the IBTrACS Q and A forum

Storm track - Intensity - Wind Radii - Intensity Data - Source Data - All data

Summary Information

Storm ID 1893042S15063
Start Feb 11 06Z
End Feb 18 06Z
ATCF IDs
Track status Best track data.

Storm track plot

Map of storm track

Intensity plots

No Intensity information for this storm


Radial wind information

No radial wind information for this storm


Position and Intensity Table

BASIN ISO_TIME_________ NATURE LAT LON
degrees north degrees east
SI 1893-02-11 06:00:00 NR -14.70 63.10
SI 09:00:00 NR -14.74 62.98
SI 12:00:00 NR -14.78 62.85
SI 15:00:00 NR -14.83 62.71
SI 18:00:00 NR -14.87 62.54
SI 21:00:00 NR -14.92 62.34
SI 1893-02-12 00:00:00 NR -14.98 62.11
SI 03:00:00 NR -15.04 61.83
SI 06:00:00 NR -15.10 61.50
SI 09:00:00 NR -15.17 61.11
SI 12:00:00 NR -15.25 60.68
SI 15:00:00 NR -15.33 60.22
SI 18:00:00 NR -15.42 59.74
SI 21:00:00 NR -15.52 59.27
SI 1893-02-13 00:00:00 NR -15.64 58.81
SI 03:00:00 NR -15.76 58.38
SI 06:00:00 NR -15.90 58.00
SI 09:00:00 NR -16.05 57.66
SI 12:00:00 NR -16.22 57.36
SI 15:00:00 NR -16.40 57.10
SI 18:00:00 NR -16.60 56.88
SI 21:00:00 NR -16.79 56.71
SI 1893-02-14 00:00:00 NR -17.00 56.59
SI 03:00:00 NR -17.20 56.52
SI 06:00:00 NR -17.40 56.50
SI 09:00:00 NR -17.60 56.54
SI 12:00:00 NR -17.81 56.65
SI 15:00:00 NR -18.01 56.80
SI 18:00:00 NR -18.21 56.99
SI 21:00:00 NR -18.40 57.21
SI 1893-02-15 00:00:00 NR -18.58 57.44
SI 03:00:00 NR -18.75 57.68
SI 06:00:00 NR -18.90 57.90
SI 09:00:00 NR -19.02 58.04
SI 12:00:00 NR -19.12 58.16
SI 15:00:00 NR -19.21 58.29
SI 18:00:00 NR -19.29 58.42
SI 21:00:00 NR -19.36 58.56
SI 1893-02-16 00:00:00 NR -19.43 58.72
SI 03:00:00 NR -19.51 58.89
SI 06:00:00 NR -19.60 59.10
SI 09:00:00 NR -19.71 59.35
SI 12:00:00 NR -19.83 59.62
SI 15:00:00 NR -19.95 59.92
SI 18:00:00 NR -20.08 60.24
SI 21:00:00 NR -20.21 60.57
SI 1893-02-17 00:00:00 NR -20.34 60.91
SI 03:00:00 NR -20.47 61.25
SI 06:00:00 NR -20.60 61.60
SI 09:00:00 NR -20.73 61.94
SI 12:00:00 NR -20.86 62.29
SI 15:00:00 NR -20.98 62.62
SI 18:00:00 NR -21.11 62.96
SI 21:00:00 NR -21.23 63.30
SI 1893-02-18 00:00:00 NR -21.36 63.63
SI 03:00:00 NR -21.48 63.97
SI 06:00:00 NR -21.60 64.30

Source Information

Agency Information
USA
TOKYO
CMA
HKO
NEWDELHI
REUNION WMO-Best-Tracks.txt:Line=1659:xxxx893243
BOM
NADI
WELLINGTON
DS824
TD9636
TD9635
NEUMANN
MLC

All available IBTrACS Data

SEASON BASIN SUBBASIN ISO_TIME_________ NATURE LAT LON WMO AGENCY DIST2LAND LANDFALL IFLAG USA SSHS REUNION LAT REUNION LON REUNION TYPE REUNION TNUM STORM SPEED STORM DIR
Year degrees north degrees east km km 1 degrees north degrees east 1 kts degrees
1893 SI MM 1893-02-11 06:00:00 NR -14.70 63.10 reunion 832 825 _____O________ -1 -14.70 63.10 99 9.90 2 251
1893 SI MM 09:00:00 NR -14.74 62.98 825 809 _____P________ -1 -14.74 62.98 99 3 251
1893 SI MM 12:00:00 NR -14.78 62.85 802 795 _____P________ -1 -14.78 62.85 99 3 252
1893 SI MM 15:00:00 NR -14.83 62.71 795 773 _____P________ -1 -14.83 62.71 99 3 253
1893 SI MM 18:00:00 NR -14.87 62.54 773 766 _____P________ -1 -14.87 62.54 99 4 255
1893 SI MM 21:00:00 NR -14.92 62.34 759 736 _____P________ -1 -14.92 62.34 99 4 256
1893 SI MM 1893-02-12 00:00:00 NR -14.98 62.11 736 717 _____P________ -1 -14.98 62.11 99 5 257
1893 SI MM 03:00:00 NR -15.04 61.83 717 689 _____P________ -1 -15.04 61.83 99 6 258
1893 SI MM 06:00:00 NR -15.10 61.50 reunion 689 656 _____O________ -1 -15.10 61.50 99 9.90 7 259
1893 SI MM 09:00:00 NR -15.17 61.11 656 633 _____P________ -1 -15.17 61.11 99 8 260
1893 SI MM 12:00:00 NR -15.25 60.68 633 598 _____P________ -1 -15.25 60.68 99 9 259
1893 SI MM 15:00:00 NR -15.33 60.22 598 570 _____P________ -1 -15.33 60.22 99 9 259
1893 SI MM 18:00:00 NR -15.42 59.74 566 541 _____P________ -1 -15.42 59.74 99 9 258
1893 SI MM 21:00:00 NR -15.52 59.27 541 516 _____P________ -1 -15.52 59.27 99 9 257
1893 SI MM 1893-02-13 00:00:00 NR -15.64 58.81 516 486 _____P________ -1 -15.64 58.81 99 9 254
1893 SI MM 03:00:00 NR -15.76 58.38 486 471 _____P________ -1 -15.76 58.38 99 8 251
1893 SI MM 06:00:00 NR -15.90 58.00 reunion 471 458 _____O________ -1 -15.90 58.00 99 9.90 8 247
1893 SI MM 09:00:00 NR -16.05 57.66 447 436 _____P________ -1 -16.05 57.66 99 7 242
1893 SI MM 12:00:00 NR -16.22 57.36 436 415 _____P________ -1 -16.22 57.36 99 6 237
1893 SI MM 15:00:00 NR -16.40 57.10 416 396 _____P________ -1 -16.40 57.10 99 6 231
1893 SI MM 18:00:00 NR -16.60 56.88 396 378 _____P________ -1 -16.60 56.88 99 5 224
1893 SI MM 21:00:00 NR -16.79 56.71 378 359 _____P________ -1 -16.79 56.71 99 5 215
1893 SI MM 1893-02-14 00:00:00 NR -17.00 56.59 359 341 _____P________ -1 -17.00 56.59 99 4 205
1893 SI MM 03:00:00 NR -17.20 56.52 341 319 _____P________ -1 -17.20 56.52 99 4 191
1893 SI MM 06:00:00 NR -17.40 56.50 reunion 319 298 _____O________ -1 -17.40 56.50 99 9.90 4 0
1893 SI MM 09:00:00 NR -17.60 56.54 298 274 _____P________ -1 -17.60 56.54 99 4 161
1893 SI MM 12:00:00 NR -17.81 56.65 274 246 _____P________ -1 -17.81 56.65 99 5 149
1893 SI MM 15:00:00 NR -18.01 56.80 246 218 _____P________ -1 -18.01 56.80 99 5 141
1893 SI MM 18:00:00 NR -18.21 56.99 218 192 _____P________ -1 -18.21 56.99 99 6 135
1893 SI MM 21:00:00 NR -18.40 57.21 192 168 _____P________ -1 -18.40 57.21 99 6 131
1893 SI MM 1893-02-15 00:00:00 NR -18.58 57.44 168 156 _____P________ -1 -18.58 57.44 99 6 128
1893 SI MM 03:00:00 NR -18.75 57.68 156 134 _____P________ -1 -18.75 57.68 99 5 126
1893 SI MM 06:00:00 NR -18.90 57.90 reunion 135 126 _____O________ -1 -18.90 57.90 99 9.90 4 128
1893 SI MM 09:00:00 NR -19.02 58.04 126 119 _____P________ -1 -19.02 58.04 99 3 131
1893 SI MM 12:00:00 NR -19.12 58.16 123 113 _____P________ -1 -19.12 58.16 99 3 128
1893 SI MM 15:00:00 NR -19.21 58.29 118 115 _____P________ -1 -19.21 58.29 99 3 124
1893 SI MM 18:00:00 NR -19.29 58.42 115 114 _____P________ -1 -19.29 58.42 99 3 121
1893 SI MM 21:00:00 NR -19.36 58.56 122 122 _____P________ -1 -19.36 58.56 99 3 118
1893 SI MM 1893-02-16 00:00:00 NR -19.43 58.72 130 130 _____P________ -1 -19.43 58.72 99 4 116
1893 SI MM 03:00:00 NR -19.51 58.89 142 142 _____P________ -1 -19.51 58.89 99 4 115
1893 SI MM 06:00:00 NR -19.60 59.10 reunion 156 156 _____O________ -1 -19.60 59.10 99 9.90 5 115
1893 SI MM 09:00:00 NR -19.71 59.35 170 170 _____P________ -1 -19.71 59.35 99 5 115
1893 SI MM 12:00:00 NR -19.83 59.62 196 196 _____P________ -1 -19.83 59.62 99 6 114
1893 SI MM 15:00:00 NR -19.95 59.92 221 221 _____P________ -1 -19.95 59.92 99 6 113
1893 SI MM 18:00:00 NR -20.08 60.24 251 251 _____P________ -1 -20.08 60.24 99 7 113
1893 SI MM 21:00:00 NR -20.21 60.57 292 292 _____P________ -1 -20.21 60.57 99 7 112
1893 SI MM 1893-02-17 00:00:00 NR -20.34 60.91 323 323 _____P________ -1 -20.34 60.91 99 7 112
1893 SI MM 03:00:00 NR -20.47 61.25 365 365 _____P________ -1 -20.47 61.25 99 7 112
1893 SI MM 06:00:00 NR -20.60 61.60 reunion 397 397 _____O________ -1 -20.60 61.60 99 9.90 7 112
1893 SI MM 09:00:00 NR -20.73 61.94 429 429 _____P________ -1 -20.73 61.94 99 7 112
1893 SI MM 12:00:00 NR -20.86 62.29 473 473 _____P________ -1 -20.86 62.29 99 7 112
1893 SI MM 15:00:00 NR -20.98 62.62 505 505 _____P________ -1 -20.98 62.62 99 7 112
1893 SI MM 18:00:00 NR -21.11 62.96 548 548 _____P________ -1 -21.11 62.96 99 7 112
1893 SI MM 21:00:00 NR -21.23 63.30 580 580 _____P________ -1 -21.23 63.30 99 7 112
1893 SI MM 1893-02-18 00:00:00 NR -21.36 63.63 614 614 _____P________ -1 -21.36 63.63 99 7 112
1893 SI MM 03:00:00 NR -21.48 63.97 657 657 _____P________ -1 -21.48 63.97 99 7 111
1893 SI MM 06:00:00 NR -21.60 64.30 reunion 690 _____O________ -1 -21.60 64.30 99 9.90 7 111